sensor_id;sensor_type;location;lat;lon;timestamp;P1;durP1;ratioP1;P2;durP2;ratioP2
60370;SDS011;48550;40.588;49.684;2023-04-03T00:02:17;20.63;;;10.48;;
60370;SDS011;48550;40.588;49.684;2023-04-03T00:04:43;20.25;;;11.80;;
60370;SDS011;48550;40.588;49.684;2023-04-03T00:07:09;20.90;;;12.00;;
60370;SDS011;48550;40.588;49.684;2023-04-03T00:09:35;18.90;;;11.07;;
60370;SDS011;48550;40.588;49.684;2023-04-03T00:12:01;19.38;;;11.55;;
60370;SDS011;48550;40.588;49.684;2023-04-03T00:14:26;24.40;;;13.05;;
60370;SDS011;48550;40.588;49.684;2023-04-03T00:16:52;24.88;;;14.63;;
60370;SDS011;48550;40.588;49.684;2023-04-03T00:19:18;23.55;;;14.20;;
60370;SDS011;48550;40.588;49.684;2023-04-03T00:21:44;26.23;;;16.10;;
60370;SDS011;48550;40.588;49.684;2023-04-03T00:24:10;26.45;;;16.38;;
60370;SDS011;48550;40.588;49.684;2023-04-03T00:26:36;30.95;;;17.10;;
60370;SDS011;48550;40.588;49.684;2023-04-03T00:29:02;32.58;;;18.52;;
60370;SDS011;48550;40.588;49.684;2023-04-03T00:31:28;26.13;;;16.77;;
60370;SDS011;48550;40.588;49.684;2023-04-03T00:33:53;27.83;;;15.95;;
60370;SDS011;48550;40.588;49.684;2023-04-03T00:36:19;31.23;;;18.33;;
60370;SDS011;48550;40.588;49.684;2023-04-03T00:38:45;30.85;;;19.80;;
60370;SDS011;48550;40.588;49.684;2023-04-03T00:41:11;33.08;;;20.73;;
60370;SDS011;48550;40.588;49.684;2023-04-03T00:43:36;32.95;;;20.52;;
60370;SDS011;48550;40.588;49.684;2023-04-03T00:46:02;31.05;;;19.48;;
60370;SDS011;48550;40.588;49.684;2023-04-03T00:48:30;34.47;;;19.33;;
60370;SDS011;48550;40.588;49.684;2023-04-03T00:50:58;33.40;;;19.67;;
60370;SDS011;48550;40.588;49.684;2023-04-03T00:53:26;30.20;;;18.58;;
60370;SDS011;48550;40.588;49.684;2023-04-03T00:55:55;30.42;;;19.08;;
60370;SDS011;48550;40.588;49.684;2023-04-03T00:58:23;36.17;;;19.48;;
60370;SDS011;48550;40.588;49.684;2023-04-03T01:00:58;28.88;;;17.17;;
60370;SDS011;48550;40.588;49.684;2023-04-03T01:03:28;27.90;;;15.23;;
60370;SDS011;48550;40.588;49.684;2023-04-03T01:05:56;25.98;;;15.27;;
60370;SDS011;48550;40.588;49.684;2023-04-03T01:08:22;18.88;;;11.90;;
60370;SDS011;48550;40.588;49.684;2023-04-03T01:10:48;17.67;;;11.10;;
60370;SDS011;48550;40.588;49.684;2023-04-03T01:15:51;15.38;;;9.13;;
60370;SDS011;48550;40.588;49.684;2023-04-03T01:18:17;17.83;;;10.32;;
60370;SDS011;48550;40.588;49.684;2023-04-03T01:21:27;15.25;;;9.98;;
60370;SDS011;48550;40.588;49.684;2023-04-03T01:26:28;19.52;;;9.68;;
60370;SDS011;48550;40.588;49.684;2023-04-03T01:28:55;27.15;;;10.57;;
60370;SDS011;48550;40.588;49.684;2023-04-03T01:31:55;13.70;;;8.70;;
60370;SDS011;48550;40.588;49.684;2023-04-03T01:34:20;16.17;;;8.13;;
60370;SDS011;48550;40.588;49.684;2023-04-03T01:36:46;12.48;;;7.20;;
60370;SDS011;48550;40.588;49.684;2023-04-03T01:39:12;14.15;;;8.48;;
60370;SDS011;48550;40.588;49.684;2023-04-03T01:41:38;13.95;;;6.75;;
60370;SDS011;48550;40.588;49.684;2023-04-03T01:44:04;8.15;;;4.15;;
60370;SDS011;48550;40.588;49.684;2023-04-03T01:46:30;12.02;;;5.32;;
60370;SDS011;48550;40.588;49.684;2023-04-03T01:48:56;9.43;;;5.38;;
60370;SDS011;48550;40.588;49.684;2023-04-03T01:51:22;12.60;;;5.30;;
60370;SDS011;48550;40.588;49.684;2023-04-03T01:53:47;11.48;;;5.57;;
60370;SDS011;48550;40.588;49.684;2023-04-03T01:56:13;8.75;;;5.80;;
60370;SDS011;48550;40.588;49.684;2023-04-03T01:58:39;9.32;;;5.88;;
60370;SDS011;48550;40.588;49.684;2023-04-03T02:01:05;13.50;;;5.75;;
60370;SDS011;48550;40.588;49.684;2023-04-03T02:03:31;12.45;;;6.00;;
60370;SDS011;48550;40.588;49.684;2023-04-03T02:05:57;12.30;;;6.22;;
60370;SDS011;48550;40.588;49.684;2023-04-03T02:08:24;10.73;;;5.93;;
60370;SDS011;48550;40.588;49.684;2023-04-03T02:10:50;12.13;;;6.05;;
60370;SDS011;48550;40.588;49.684;2023-04-03T02:13:17;8.95;;;5.95;;
60370;SDS011;48550;40.588;49.684;2023-04-03T02:15:43;12.20;;;6.18;;
60370;SDS011;48550;40.588;49.684;2023-04-03T02:18:10;9.35;;;5.68;;
60370;SDS011;48550;40.588;49.684;2023-04-03T02:20:36;11.85;;;6.50;;
60370;SDS011;48550;40.588;49.684;2023-04-03T02:23:02;14.43;;;7.35;;
60370;SDS011;48550;40.588;49.684;2023-04-03T02:25:30;14.15;;;7.55;;
60370;SDS011;48550;40.588;49.684;2023-04-03T02:27:56;12.00;;;6.53;;
60370;SDS011;48550;40.588;49.684;2023-04-03T02:30:22;11.07;;;6.80;;
60370;SDS011;48550;40.588;49.684;2023-04-03T02:32:47;14.57;;;7.07;;
60370;SDS011;48550;40.588;49.684;2023-04-03T02:35:13;15.50;;;8.48;;
60370;SDS011;48550;40.588;49.684;2023-04-03T02:37:39;13.35;;;7.15;;
60370;SDS011;48550;40.588;49.684;2023-04-03T02:40:05;16.38;;;7.20;;
60370;SDS011;48550;40.588;49.684;2023-04-03T02:42:32;10.68;;;6.15;;
60370;SDS011;48550;40.588;49.684;2023-04-03T02:44:58;13.75;;;7.00;;
60370;SDS011;48550;40.588;49.684;2023-04-03T02:47:26;13.45;;;6.50;;
60370;SDS011;48550;40.588;49.684;2023-04-03T02:49:52;12.95;;;6.50;;
60370;SDS011;48550;40.588;49.684;2023-04-03T02:52:18;13.68;;;7.13;;
60370;SDS011;48550;40.588;49.684;2023-04-03T02:54:44;12.10;;;7.55;;
60370;SDS011;48550;40.588;49.684;2023-04-03T02:57:09;14.88;;;8.20;;
60370;SDS011;48550;40.588;49.684;2023-04-03T02:59:38;18.65;;;8.63;;
60370;SDS011;48550;40.588;49.684;2023-04-03T03:02:07;18.50;;;8.95;;
60370;SDS011;48550;40.588;49.684;2023-04-03T03:04:34;17.70;;;8.93;;
60370;SDS011;48550;40.588;49.684;2023-04-03T03:07:00;16.25;;;10.05;;
60370;SDS011;48550;40.588;49.684;2023-04-03T03:09:25;17.63;;;11.23;;
60370;SDS011;48550;40.588;49.684;2023-04-03T03:11:51;20.25;;;9.85;;
60370;SDS011;48550;40.588;49.684;2023-04-03T03:14:17;16.35;;;7.95;;
60370;SDS011;48550;40.588;49.684;2023-04-03T03:16:43;15.20;;;8.30;;
60370;SDS011;48550;40.588;49.684;2023-04-03T03:19:09;20.33;;;8.63;;
60370;SDS011;48550;40.588;49.684;2023-04-03T03:21:36;21.35;;;10.68;;
60370;SDS011;48550;40.588;49.684;2023-04-03T03:24:02;17.35;;;9.68;;
60370;SDS011;48550;40.588;49.684;2023-04-03T03:26:27;18.77;;;10.52;;
60370;SDS011;48550;40.588;49.684;2023-04-03T03:28:53;20.13;;;11.20;;
60370;SDS011;48550;40.588;49.684;2023-04-03T03:31:19;18.95;;;12.57;;
60370;SDS011;48550;40.588;49.684;2023-04-03T03:33:45;16.80;;;10.77;;
60370;SDS011;48550;40.588;49.684;2023-04-03T03:36:11;18.83;;;10.73;;
60370;SDS011;48550;40.588;49.684;2023-04-03T03:38:36;19.65;;;10.25;;
60370;SDS011;48550;40.588;49.684;2023-04-03T03:41:02;13.68;;;7.75;;
60370;SDS011;48550;40.588;49.684;2023-04-03T03:43:28;10.75;;;4.18;;
60370;SDS011;48550;40.588;49.684;2023-04-03T03:45:55;19.42;;;5.97;;
60370;SDS011;48550;40.588;49.684;2023-04-03T03:48:21;14.77;;;4.35;;
60370;SDS011;48550;40.588;49.684;2023-04-03T03:50:47;9.45;;;4.43;;
60370;SDS011;48550;40.588;49.684;2023-04-03T03:53:13;16.33;;;3.72;;
60370;SDS011;48550;40.588;49.684;2023-04-03T03:55:40;9.32;;;3.80;;
60370;SDS011;48550;40.588;49.684;2023-04-03T03:58:06;8.57;;;4.38;;
60370;SDS011;48550;40.588;49.684;2023-04-03T04:00:32;8.77;;;3.70;;
60370;SDS011;48550;40.588;49.684;2023-04-03T04:02:57;11.30;;;3.67;;
60370;SDS011;48550;40.588;49.684;2023-04-03T04:05:23;11.68;;;3.90;;
60370;SDS011;48550;40.588;49.684;2023-04-03T04:07:49;12.18;;;3.92;;
60370;SDS011;48550;40.588;49.684;2023-04-03T04:10:15;11.02;;;3.90;;
60370;SDS011;48550;40.588;49.684;2023-04-03T04:12:41;11.00;;;3.30;;
60370;SDS011;48550;40.588;49.684;2023-04-03T04:15:07;8.80;;;3.50;;
60370;SDS011;48550;40.588;49.684;2023-04-03T04:17:34;8.85;;;2.80;;
60370;SDS011;48550;40.588;49.684;2023-04-03T04:20:00;9.15;;;3.40;;
60370;SDS011;48550;40.588;49.684;2023-04-03T04:22:27;13.15;;;3.83;;
60370;SDS011;48550;40.588;49.684;2023-04-03T04:24:53;11.02;;;3.50;;
60370;SDS011;48550;40.588;49.684;2023-04-03T04:27:19;16.52;;;3.47;;
60370;SDS011;48550;40.588;49.684;2023-04-03T04:29:45;18.65;;;4.10;;
60370;SDS011;48550;40.588;49.684;2023-04-03T04:32:10;12.00;;;3.53;;
60370;SDS011;48550;40.588;49.684;2023-04-03T04:34:36;14.27;;;4.35;;
60370;SDS011;48550;40.588;49.684;2023-04-03T04:37:01;19.50;;;3.63;;
60370;SDS011;48550;40.588;49.684;2023-04-03T04:39:27;18.80;;;3.95;;
60370;SDS011;48550;40.588;49.684;2023-04-03T04:41:53;16.60;;;3.47;;
60370;SDS011;48550;40.588;49.684;2023-04-03T04:44:18;13.23;;;3.50;;
60370;SDS011;48550;40.588;49.684;2023-04-03T04:46:45;20.02;;;3.70;;
60370;SDS011;48550;40.588;49.684;2023-04-03T04:49:11;15.68;;;3.72;;
60370;SDS011;48550;40.588;49.684;2023-04-03T04:51:36;15.07;;;4.45;;
60370;SDS011;48550;40.588;49.684;2023-04-03T04:54:02;18.75;;;4.10;;
60370;SDS011;48550;40.588;49.684;2023-04-03T04:56:28;14.68;;;4.18;;
60370;SDS011;48550;40.588;49.684;2023-04-03T04:58:53;11.30;;;3.45;;
60370;SDS011;48550;40.588;49.684;2023-04-03T05:01:19;11.15;;;3.50;;
60370;SDS011;48550;40.588;49.684;2023-04-03T05:03:45;20.05;;;4.43;;
60370;SDS011;48550;40.588;49.684;2023-04-03T05:06:12;19.27;;;3.95;;
60370;SDS011;48550;40.588;49.684;2023-04-03T05:08:38;13.43;;;3.90;;
60370;SDS011;48550;40.588;49.684;2023-04-03T05:11:04;15.80;;;3.88;;
60370;SDS011;48550;40.588;49.684;2023-04-03T05:13:29;23.20;;;3.83;;
60370;SDS011;48550;40.588;49.684;2023-04-03T05:15:55;20.67;;;3.97;;
60370;SDS011;48550;40.588;49.684;2023-04-03T05:18:21;18.92;;;4.25;;
60370;SDS011;48550;40.588;49.684;2023-04-03T05:20:48;22.67;;;4.88;;
60370;SDS011;48550;40.588;49.684;2023-04-03T05:23:15;14.75;;;4.18;;
60370;SDS011;48550;40.588;49.684;2023-04-03T05:25:41;15.55;;;3.72;;
60370;SDS011;48550;40.588;49.684;2023-04-03T05:28:08;17.80;;;3.95;;
60370;SDS011;48550;40.588;49.684;2023-04-03T05:30:35;17.30;;;3.95;;
60370;SDS011;48550;40.588;49.684;2023-04-03T05:33:00;19.55;;;5.20;;
60370;SDS011;48550;40.588;49.684;2023-04-03T05:35:26;16.33;;;3.80;;
60370;SDS011;48550;40.588;49.684;2023-04-03T05:37:52;20.27;;;6.45;;
60370;SDS011;48550;40.588;49.684;2023-04-03T05:40:17;22.05;;;5.70;;
60370;SDS011;48550;40.588;49.684;2023-04-03T05:42:43;20.60;;;4.85;;
60370;SDS011;48550;40.588;49.684;2023-04-03T05:45:09;17.02;;;4.97;;
60370;SDS011;48550;40.588;49.684;2023-04-03T05:47:36;25.52;;;6.28;;
60370;SDS011;48550;40.588;49.684;2023-04-03T05:50:01;20.40;;;3.95;;
60370;SDS011;48550;40.588;49.684;2023-04-03T05:52:37;21.40;;;4.60;;
60370;SDS011;48550;40.588;49.684;2023-04-03T05:55:05;24.55;;;5.18;;
60370;SDS011;48550;40.588;49.684;2023-04-03T05:57:31;26.33;;;5.15;;
60370;SDS011;48550;40.588;49.684;2023-04-03T05:59:57;29.50;;;5.05;;
60370;SDS011;48550;40.588;49.684;2023-04-03T06:02:23;24.48;;;4.72;;
60370;SDS011;48550;40.588;49.684;2023-04-03T06:04:51;26.50;;;4.78;;
60370;SDS011;48550;40.588;49.684;2023-04-03T06:07:20;25.90;;;5.53;;
60370;SDS011;48550;40.588;49.684;2023-04-03T06:09:48;26.40;;;7.00;;
60370;SDS011;48550;40.588;49.684;2023-04-03T06:12:14;32.10;;;6.30;;
60370;SDS011;48550;40.588;49.684;2023-04-03T06:14:40;18.20;;;4.88;;
60370;SDS011;48550;40.588;49.684;2023-04-03T06:17:06;27.30;;;5.70;;
60370;SDS011;48550;40.588;49.684;2023-04-03T06:19:34;33.08;;;6.72;;
60370;SDS011;48550;40.588;49.684;2023-04-03T06:22:00;22.70;;;4.90;;
60370;SDS011;48550;40.588;49.684;2023-04-03T06:24:26;35.90;;;5.82;;
60370;SDS011;48550;40.588;49.684;2023-04-03T06:26:52;30.80;;;7.47;;
60370;SDS011;48550;40.588;49.684;2023-04-03T06:29:18;22.45;;;5.75;;
60370;SDS011;48550;40.588;49.684;2023-04-03T06:31:45;33.95;;;9.65;;
60370;SDS011;48550;40.588;49.684;2023-04-03T06:34:11;28.27;;;6.28;;
60370;SDS011;48550;40.588;49.684;2023-04-03T06:36:38;23.77;;;6.00;;
60370;SDS011;48550;40.588;49.684;2023-04-03T06:39:04;22.73;;;4.70;;
60370;SDS011;48550;40.588;49.684;2023-04-03T06:41:30;28.13;;;6.10;;
60370;SDS011;48550;40.588;49.684;2023-04-03T06:43:56;27.95;;;5.18;;
60370;SDS011;48550;40.588;49.684;2023-04-03T06:46:23;40.85;;;8.40;;
60370;SDS011;48550;40.588;49.684;2023-04-03T06:48:52;21.52;;;4.50;;
60370;SDS011;48550;40.588;49.684;2023-04-03T06:51:20;25.83;;;4.38;;
60370;SDS011;48550;40.588;49.684;2023-04-03T06:53:51;17.58;;;5.43;;
60370;SDS011;48550;40.588;49.684;2023-04-03T06:56:18;23.85;;;3.92;;
60370;SDS011;48550;40.588;49.684;2023-04-03T06:58:44;25.10;;;4.45;;
60370;SDS011;48550;40.588;49.684;2023-04-03T07:01:12;28.67;;;6.43;;
60370;SDS011;48550;40.588;49.684;2023-04-03T07:03:39;32.78;;;4.93;;
60370;SDS011;48550;40.588;49.684;2023-04-03T07:06:06;25.25;;;4.40;;
60370;SDS011;48550;40.588;49.684;2023-04-03T07:08:33;25.45;;;4.82;;
60370;SDS011;48550;40.588;49.684;2023-04-03T07:11:00;24.15;;;4.53;;
60370;SDS011;48550;40.588;49.684;2023-04-03T07:13:26;26.45;;;5.07;;
60370;SDS011;48550;40.588;49.684;2023-04-03T07:15:52;25.55;;;4.63;;
60370;SDS011;48550;40.588;49.684;2023-04-03T07:18:18;19.75;;;5.00;;
60370;SDS011;48550;40.588;49.684;2023-04-03T07:20:44;25.40;;;4.20;;
60370;SDS011;48550;40.588;49.684;2023-04-03T07:23:10;27.98;;;4.80;;
60370;SDS011;48550;40.588;49.684;2023-04-03T07:25:37;27.83;;;5.15;;
60370;SDS011;48550;40.588;49.684;2023-04-03T07:28:07;19.77;;;4.47;;
60370;SDS011;48550;40.588;49.684;2023-04-03T07:30:33;21.13;;;4.03;;
60370;SDS011;48550;40.588;49.684;2023-04-03T07:32:59;31.25;;;5.95;;
60370;SDS011;48550;40.588;49.684;2023-04-03T07:35:24;33.70;;;5.53;;
60370;SDS011;48550;40.588;49.684;2023-04-03T07:37:50;31.02;;;5.65;;
60370;SDS011;48550;40.588;49.684;2023-04-03T07:40:16;37.95;;;6.13;;
60370;SDS011;48550;40.588;49.684;2023-04-03T07:42:42;20.63;;;5.50;;
60370;SDS011;48550;40.588;49.684;2023-04-03T07:45:07;15.93;;;4.72;;
60370;SDS011;48550;40.588;49.684;2023-04-03T07:47:34;19.80;;;3.83;;
60370;SDS011;48550;40.588;49.684;2023-04-03T07:50:00;18.83;;;4.20;;
60370;SDS011;48550;40.588;49.684;2023-04-03T07:52:25;16.63;;;3.88;;
60370;SDS011;48550;40.588;49.684;2023-04-03T07:54:51;13.95;;;4.20;;
60370;SDS011;48550;40.588;49.684;2023-04-03T07:57:17;19.70;;;4.10;;
60370;SDS011;48550;40.588;49.684;2023-04-03T07:59:42;12.07;;;3.30;;
60370;SDS011;48550;40.588;49.684;2023-04-03T08:02:11;26.55;;;4.35;;
60370;SDS011;48550;40.588;49.684;2023-04-03T08:04:37;16.60;;;3.35;;
60370;SDS011;48550;40.588;49.684;2023-04-03T08:07:03;19.02;;;3.88;;
60370;SDS011;48550;40.588;49.684;2023-04-03T08:09:29;17.58;;;3.92;;
60370;SDS011;48550;40.588;49.684;2023-04-03T08:11:56;12.23;;;3.47;;
60370;SDS011;48550;40.588;49.684;2023-04-03T08:14:23;13.38;;;3.78;;
60370;SDS011;48550;40.588;49.684;2023-04-03T08:16:49;14.82;;;3.92;;
60370;SDS011;48550;40.588;49.684;2023-04-03T08:19:15;15.07;;;3.40;;
60370;SDS011;48550;40.588;49.684;2023-04-03T08:21:43;11.35;;;3.70;;
60370;SDS011;48550;40.588;49.684;2023-04-03T08:24:10;12.98;;;3.10;;
60370;SDS011;48550;40.588;49.684;2023-04-03T08:26:36;24.17;;;4.50;;
60370;SDS011;48550;40.588;49.684;2023-04-03T08:29:03;26.95;;;4.43;;
60370;SDS011;48550;40.588;49.684;2023-04-03T08:31:29;24.92;;;3.88;;
60370;SDS011;48550;40.588;49.684;2023-04-03T08:33:56;14.50;;;4.18;;
60370;SDS011;48550;40.588;49.684;2023-04-03T08:36:27;17.08;;;3.60;;
60370;SDS011;48550;40.588;49.684;2023-04-03T08:38:54;19.55;;;4.20;;
60370;SDS011;48550;40.588;49.684;2023-04-03T08:44:04;24.15;;;4.93;;
60370;SDS011;48550;40.588;49.684;2023-04-03T08:49:31;29.73;;;5.18;;
60370;SDS011;48550;40.588;49.684;2023-04-03T08:52:02;16.10;;;4.32;;
60370;SDS011;48550;40.588;49.684;2023-04-03T08:54:34;22.85;;;5.25;;
60370;SDS011;48550;40.588;49.684;2023-04-03T08:57:07;19.13;;;4.35;;
60370;SDS011;48550;40.588;49.684;2023-04-03T08:59:35;18.30;;;3.78;;
60370;SDS011;48550;40.588;49.684;2023-04-03T09:02:04;22.58;;;4.03;;
60370;SDS011;48550;40.588;49.684;2023-04-03T09:04:51;21.13;;;4.10;;
60370;SDS011;48550;40.588;49.684;2023-04-03T09:07:22;20.42;;;4.28;;
60370;SDS011;48550;40.588;49.684;2023-04-03T09:09:59;18.10;;;4.63;;
60370;SDS011;48550;40.588;49.684;2023-04-03T09:12:30;21.20;;;4.30;;
60370;SDS011;48550;40.588;49.684;2023-04-03T09:17:41;14.75;;;4.22;;
60370;SDS011;48550;40.588;49.684;2023-04-03T09:23:03;23.80;;;4.63;;
60370;SDS011;48550;40.588;49.684;2023-04-03T09:25:42;12.70;;;3.72;;
60370;SDS011;48550;40.588;49.684;2023-04-03T09:28:09;15.57;;;4.32;;
60370;SDS011;48550;40.588;49.684;2023-04-03T09:30:35;19.08;;;4.57;;
60370;SDS011;48550;40.588;49.684;2023-04-03T09:33:01;16.98;;;4.07;;
60370;SDS011;48550;40.588;49.684;2023-04-03T09:35:34;11.90;;;4.45;;
60370;SDS011;48550;40.588;49.684;2023-04-03T09:40:37;25.95;;;4.78;;
60370;SDS011;48550;40.588;49.684;2023-04-03T09:45:43;16.13;;;4.13;;
60370;SDS011;48550;40.588;49.684;2023-04-03T09:53:39;14.38;;;4.40;;
60370;SDS011;48550;40.588;49.684;2023-04-03T09:58:38;8.23;;;4.47;;
60370;SDS011;48550;40.588;49.684;2023-04-03T10:01:31;12.82;;;4.60;;
60370;SDS011;48550;40.588;49.684;2023-04-03T10:04:23;39.20;;;14.93;;
60370;SDS011;48550;40.588;49.684;2023-04-03T10:06:52;13.05;;;4.32;;
60370;SDS011;48550;40.588;49.684;2023-04-03T10:09:24;10.37;;;4.80;;
60370;SDS011;48550;40.588;49.684;2023-04-03T10:12:11;9.00;;;3.95;;
60370;SDS011;48550;40.588;49.684;2023-04-03T10:14:40;8.85;;;4.25;;
60370;SDS011;48550;40.588;49.684;2023-04-03T10:25:20;13.38;;;4.57;;
60370;SDS011;48550;40.588;49.684;2023-04-03T10:28:34;10.40;;;4.45;;
60370;SDS011;48550;40.588;49.684;2023-04-03T10:31:31;11.65;;;5.07;;
60370;SDS011;48550;40.588;49.684;2023-04-03T10:45:01;12.32;;;5.45;;
60370;SDS011;48550;40.588;49.684;2023-04-03T10:47:42;19.38;;;6.45;;
60370;SDS011;48550;40.588;49.684;2023-04-03T10:53:19;12.18;;;5.88;;
60370;SDS011;48550;40.588;49.684;2023-04-03T10:56:01;14.63;;;5.55;;
60370;SDS011;48550;40.588;49.684;2023-04-03T10:58:45;13.05;;;6.65;;
60370;SDS011;48550;40.588;49.684;2023-04-03T11:01:23;16.20;;;5.25;;
60370;SDS011;48550;40.588;49.684;2023-04-03T11:03:57;27.95;;;5.72;;
60370;SDS011;48550;40.588;49.684;2023-04-03T11:06:25;28.13;;;5.82;;
60370;SDS011;48550;40.588;49.684;2023-04-03T11:11:35;22.08;;;6.28;;
60370;SDS011;48550;40.588;49.684;2023-04-03T11:16:48;14.20;;;6.82;;
60370;SDS011;48550;40.588;49.684;2023-04-03T11:22:08;16.25;;;6.70;;
60370;SDS011;48550;40.588;49.684;2023-04-03T11:24:39;21.83;;;7.25;;
60370;SDS011;48550;40.588;49.684;2023-04-03T11:27:11;13.05;;;6.32;;
60370;SDS011;48550;40.588;49.684;2023-04-03T11:29:43;17.88;;;8.48;;
60370;SDS011;48550;40.588;49.684;2023-04-03T11:32:29;14.88;;;7.43;;
60370;SDS011;48550;40.588;49.684;2023-04-03T11:34:57;17.92;;;8.65;;
60370;SDS011;48550;40.588;49.684;2023-04-03T11:37:29;20.77;;;7.55;;
60370;SDS011;48550;40.588;49.684;2023-04-03T11:40:02;16.58;;;8.13;;
60370;SDS011;48550;40.588;49.684;2023-04-03T11:42:39;12.68;;;7.30;;
60370;SDS011;48550;40.588;49.684;2023-04-03T12:11:19;16.17;;;8.73;;
60370;SDS011;48550;40.588;49.684;2023-04-03T12:21:21;18.05;;;7.93;;
60370;SDS011;48550;40.588;49.684;2023-04-03T12:29:13;20.05;;;9.15;;
60370;SDS011;48550;40.588;49.684;2023-04-03T12:37:09;13.70;;;8.23;;
60370;SDS011;48550;40.588;49.684;2023-04-03T12:39:55;13.50;;;7.60;;
60370;SDS011;48550;40.588;49.684;2023-04-03T12:45:44;14.60;;;7.93;;
60370;SDS011;48550;40.588;49.684;2023-04-03T12:48:15;14.98;;;8.45;;
60370;SDS011;48550;40.588;49.684;2023-04-03T12:50:43;23.13;;;9.07;;
60370;SDS011;48550;40.588;49.684;2023-04-03T12:53:21;15.07;;;8.32;;
60370;SDS011;48550;40.588;49.684;2023-04-03T12:55:55;15.20;;;8.77;;
60370;SDS011;48550;40.588;49.684;2023-04-03T12:58:23;18.20;;;8.38;;
60370;SDS011;48550;40.588;49.684;2023-04-03T13:01:04;14.32;;;8.35;;
60370;SDS011;48550;40.588;49.684;2023-04-03T13:03:35;20.83;;;8.27;;
60370;SDS011;48550;40.588;49.684;2023-04-03T13:06:04;16.33;;;8.40;;
60370;SDS011;48550;40.588;49.684;2023-04-03T13:08:31;20.10;;;8.73;;
60370;SDS011;48550;40.588;49.684;2023-04-03T13:11:01;15.70;;;7.97;;
60370;SDS011;48550;40.588;49.684;2023-04-03T13:13:31;10.70;;;7.32;;
60370;SDS011;48550;40.588;49.684;2023-04-03T13:15:57;17.05;;;7.03;;
60370;SDS011;48550;40.588;49.684;2023-04-03T13:18:26;10.57;;;5.78;;
60370;SDS011;48550;40.588;49.684;2023-04-03T13:20:59;18.20;;;6.40;;
60370;SDS011;48550;40.588;49.684;2023-04-03T13:23:31;10.55;;;5.88;;
60370;SDS011;48550;40.588;49.684;2023-04-03T13:26:00;9.55;;;4.97;;
60370;SDS011;48550;40.588;49.684;2023-04-03T13:28:29;13.57;;;5.90;;
60370;SDS011;48550;40.588;49.684;2023-04-03T13:30:59;15.52;;;6.63;;
60370;SDS011;48550;40.588;49.684;2023-04-03T13:33:30;12.57;;;5.45;;
60370;SDS011;48550;40.588;49.684;2023-04-03T13:36:08;14.38;;;5.57;;
60370;SDS011;48550;40.588;49.684;2023-04-03T13:38:46;19.63;;;6.80;;
60370;SDS011;48550;40.588;49.684;2023-04-03T13:41:32;14.32;;;6.85;;
60370;SDS011;48550;40.588;49.684;2023-04-03T13:44:36;11.95;;;5.00;;
60370;SDS011;48550;40.588;49.684;2023-04-03T13:54:58;13.60;;;7.63;;
60370;SDS011;48550;40.588;49.684;2023-04-03T13:57:26;13.15;;;7.13;;
60370;SDS011;48550;40.588;49.684;2023-04-03T13:59:53;25.73;;;8.82;;
60370;SDS011;48550;40.588;49.684;2023-04-03T14:02:28;14.20;;;8.30;;
60370;SDS011;48550;40.588;49.684;2023-04-03T14:04:58;14.25;;;7.00;;
60370;SDS011;48550;40.588;49.684;2023-04-03T14:07:27;17.13;;;7.07;;
60370;SDS011;48550;40.588;49.684;2023-04-03T14:09:56;12.88;;;7.22;;
60370;SDS011;48550;40.588;49.684;2023-04-03T14:12:26;18.45;;;7.60;;
60370;SDS011;48550;40.588;49.684;2023-04-03T14:17:22;18.23;;;7.18;;
60370;SDS011;48550;40.588;49.684;2023-04-03T14:19:50;10.38;;;6.43;;
60370;SDS011;48550;40.588;49.684;2023-04-03T14:22:21;15.15;;;7.00;;
60370;SDS011;48550;40.588;49.684;2023-04-03T14:24:49;16.20;;;8.23;;
60370;SDS011;48550;40.588;49.684;2023-04-03T14:27:23;18.02;;;8.13;;
60370;SDS011;48550;40.588;49.684;2023-04-03T14:29:52;16.77;;;8.65;;
60370;SDS011;48550;40.588;49.684;2023-04-03T14:32:21;13.93;;;8.40;;
60370;SDS011;48550;40.588;49.684;2023-04-03T14:34:48;17.80;;;8.68;;
60370;SDS011;48550;40.588;49.684;2023-04-03T14:37:21;20.92;;;8.45;;
60370;SDS011;48550;40.588;49.684;2023-04-03T14:39:50;16.55;;;8.65;;
60370;SDS011;48550;40.588;49.684;2023-04-03T14:42:19;15.82;;;7.93;;
60370;SDS011;48550;40.588;49.684;2023-04-03T14:44:47;16.33;;;8.27;;
60370;SDS011;48550;40.588;49.684;2023-04-03T14:47:14;16.60;;;9.25;;
60370;SDS011;48550;40.588;49.684;2023-04-03T14:49:43;21.27;;;8.90;;
60370;SDS011;48550;40.588;49.684;2023-04-03T14:52:16;20.80;;;9.65;;
60370;SDS011;48550;40.588;49.684;2023-04-03T14:54:48;21.83;;;9.82;;
60370;SDS011;48550;40.588;49.684;2023-04-03T14:57:15;19.13;;;9.38;;
60370;SDS011;48550;40.588;49.684;2023-04-03T14:59:42;15.90;;;9.25;;
60370;SDS011;48550;40.588;49.684;2023-04-03T15:02:30;17.13;;;8.55;;
60370;SDS011;48550;40.588;49.684;2023-04-03T15:05:00;18.65;;;8.75;;
60370;SDS011;48550;40.588;49.684;2023-04-03T15:07:29;22.02;;;9.90;;
60370;SDS011;48550;40.588;49.684;2023-04-03T15:09:58;20.60;;;9.63;;
60370;SDS011;48550;40.588;49.684;2023-04-03T15:12:42;19.92;;;9.25;;
60370;SDS011;48550;40.588;49.684;2023-04-03T15:15:08;18.08;;;9.07;;
60370;SDS011;48550;40.588;49.684;2023-04-03T15:17:35;20.67;;;8.95;;
60370;SDS011;48550;40.588;49.684;2023-04-03T15:20:02;18.85;;;9.73;;
60370;SDS011;48550;40.588;49.684;2023-04-03T15:22:28;17.58;;;9.60;;
60370;SDS011;48550;40.588;49.684;2023-04-03T15:24:54;19.83;;;10.27;;
60370;SDS011;48550;40.588;49.684;2023-04-03T15:27:20;18.52;;;8.55;;
60370;SDS011;48550;40.588;49.684;2023-04-03T15:29:46;22.65;;;10.07;;
60370;SDS011;48550;40.588;49.684;2023-04-03T15:32:12;17.13;;;9.70;;
60370;SDS011;48550;40.588;49.684;2023-04-03T15:34:38;16.52;;;9.27;;
60370;SDS011;48550;40.588;49.684;2023-04-03T15:37:05;18.48;;;8.68;;
60370;SDS011;48550;40.588;49.684;2023-04-03T15:39:30;21.15;;;9.93;;
60370;SDS011;48550;40.588;49.684;2023-04-03T15:41:56;28.75;;;14.85;;
60370;SDS011;48550;40.588;49.684;2023-04-03T15:44:32;25.92;;;10.80;;
60370;SDS011;48550;40.588;49.684;2023-04-03T15:46:59;16.52;;;8.93;;
60370;SDS011;48550;40.588;49.684;2023-04-03T15:49:25;18.85;;;9.65;;
60370;SDS011;48550;40.588;49.684;2023-04-03T15:51:52;21.75;;;9.68;;
60370;SDS011;48550;40.588;49.684;2023-04-03T15:54:17;19.30;;;10.18;;
60370;SDS011;48550;40.588;49.684;2023-04-03T15:56:43;16.02;;;8.85;;
60370;SDS011;48550;40.588;49.684;2023-04-03T15:59:09;18.20;;;9.93;;
60370;SDS011;48550;40.588;49.684;2023-04-03T16:01:35;33.45;;;10.93;;
60370;SDS011;48550;40.588;49.684;2023-04-03T16:04:02;22.08;;;10.02;;
60370;SDS011;48550;40.588;49.684;2023-04-03T16:06:27;20.27;;;9.77;;
60370;SDS011;48550;40.588;49.684;2023-04-03T16:08:55;14.80;;;8.50;;
60370;SDS011;48550;40.588;49.684;2023-04-03T16:11:24;15.35;;;8.60;;
60370;SDS011;48550;40.588;49.684;2023-04-03T16:13:50;19.55;;;9.23;;
60370;SDS011;48550;40.588;49.684;2023-04-03T16:16:16;28.67;;;9.70;;
60370;SDS011;48550;40.588;49.684;2023-04-03T16:18:41;15.55;;;8.98;;
60370;SDS011;48550;40.588;49.684;2023-04-03T16:21:08;25.85;;;9.77;;
60370;SDS011;48550;40.588;49.684;2023-04-03T16:23:34;16.98;;;8.90;;
60370;SDS011;48550;40.588;49.684;2023-04-03T16:26:00;15.95;;;9.40;;
60370;SDS011;48550;40.588;49.684;2023-04-03T16:28:26;14.05;;;8.10;;